Lampasas, Texas
Current Conditions -  °F | °C
As of 12:35 PM on Thursday 27 Nov 2014 (Local Time) from KLZZ Reporting Station
Clear Clear  
Wind Chill: 55°   Ceiling: Unl
Heat Index: 55°   Visibility: 10mi
Dew Point: 26°   Wind: 7mph
Humidity: 32%   Direction: 110°ESE
Pressure: 30.48"   Gusts: NA
Location:  31.07°N, 98.18°W
Report Text: KLZZ 271835Z AUTO 11006KT 10SM CLR 13/M03 A3048 RMK AO2 T01301034
Loading
Personal Weather Stations






























Interactive Weather Map New forecast layout! Learn more

10-Day Weather Forecast

Advertisements
Track Severe Weather on mobile